createdAt,value
2022-10-01T00:01:41.071Z,22.05
2022-10-01T00:04:07.479Z,21.95
2022-10-01T00:06:33.851Z,21.86
2022-10-01T00:09:00.228Z,21.78
2022-10-01T00:11:26.595Z,21.78
2022-10-01T00:13:52.965Z,21.74
2022-10-01T00:16:19.392Z,21.70
2022-10-01T00:18:45.832Z,21.68
2022-10-01T00:21:12.209Z,21.66
2022-10-01T00:23:38.582Z,21.62
2022-10-01T00:26:04.970Z,21.60
2022-10-01T00:28:31.341Z,21.60
2022-10-01T00:30:57.764Z,21.58
2022-10-01T00:33:24.214Z,21.58
2022-10-01T00:35:50.586Z,21.58
2022-10-01T00:38:16.957Z,21.59
2022-10-01T00:40:43.328Z,21.56
2022-10-01T00:43:09.686Z,21.55
2022-10-01T00:45:36.120Z,21.52
2022-10-01T00:48:02.576Z,21.57
2022-10-01T00:50:28.951Z,21.54
2022-10-01T00:52:55.329Z,21.54
2022-10-01T00:55:21.689Z,21.53
2022-10-01T00:57:48.051Z,21.51
2022-10-01T01:00:14.412Z,21.52
2022-10-01T01:02:40.863Z,21.48
2022-10-01T01:05:07.244Z,21.50
2022-10-01T01:07:33.600Z,21.51
2022-10-01T01:09:59.967Z,21.52
2022-10-01T01:12:26.336Z,21.49
2022-10-01T01:14:52.703Z,21.48
2022-10-01T01:17:19.082Z,21.55
2022-10-01T01:19:45.464Z,21.48
2022-10-01T01:22:11.838Z,21.45
2022-10-01T01:24:38.210Z,21.45
2022-10-01T01:27:04.666Z,21.47
2022-10-01T01:29:31.037Z,21.45
2022-10-01T01:31:57.404Z,21.50
2022-10-01T01:34:23.791Z,21.46
2022-10-01T01:36:50.154Z,21.47
2022-10-01T01:39:16.509Z,21.48
2022-10-01T01:41:42.875Z,21.46
2022-10-01T01:44:09.239Z,21.43
2022-10-01T01:46:35.612Z,21.44
2022-10-01T01:49:01.977Z,21.44
2022-10-01T01:51:28.350Z,21.46
2022-10-01T01:53:54.727Z,21.43
2022-10-01T01:56:21.083Z,21.46
2022-10-01T01:58:47.466Z,21.43
2022-10-01T02:01:13.865Z,21.43
2022-10-01T02:03:40.269Z,21.43
2022-10-01T02:06:06.642Z,21.40
2022-10-01T02:08:33.015Z,21.41
2022-10-01T02:10:59.385Z,21.43
2022-10-01T02:13:25.759Z,21.39
2022-10-01T02:15:52.161Z,21.42
2022-10-01T02:18:18.544Z,21.40
2022-10-01T02:20:44.908Z,21.40
2022-10-01T02:23:11.272Z,21.40
2022-10-01T02:25:37.730Z,21.42
2022-10-01T02:28:04.148Z,21.43
2022-10-01T02:30:30.565Z,21.40
2022-10-01T02:32:56.932Z,21.42
2022-10-01T02:35:23.294Z,21.43
2022-10-01T02:37:49.666Z,21.42
2022-10-01T02:40:16.026Z,21.42
2022-10-01T02:42:42.383Z,21.44
2022-10-01T02:45:08.760Z,21.42
2022-10-01T02:47:35.136Z,21.44
2022-10-01T02:50:01.496Z,21.43
2022-10-01T02:52:27.855Z,21.43
2022-10-01T02:54:54.234Z,21.41
2022-10-01T02:57:20.606Z,21.38
2022-10-01T02:59:46.966Z,21.41
2022-10-01T03:02:13.453Z,21.41
2022-10-01T03:04:39.912Z,21.38
2022-10-01T03:07:06.283Z,21.40
2022-10-01T03:09:32.670Z,21.43
2022-10-01T03:11:59.032Z,21.46
2022-10-01T03:14:25.401Z,21.42
2022-10-01T03:16:51.782Z,21.41
2022-10-01T03:19:18.146Z,21.41
2022-10-01T03:21:44.512Z,21.44
2022-10-01T03:24:10.877Z,21.46
2022-10-01T03:26:37.229Z,21.44
2022-10-01T03:29:03.605Z,21.44
2022-10-01T03:31:30.123Z,21.46
2022-10-01T03:33:56.608Z,21.46
2022-10-01T03:36:22.969Z,21.47
2022-10-01T03:38:49.338Z,21.47
2022-10-01T03:41:15.705Z,21.46
2022-10-01T03:43:42.070Z,21.48
2022-10-01T03:46:08.478Z,21.51
2022-10-01T03:48:34.871Z,21.46
2022-10-01T03:51:01.234Z,21.41
2022-10-01T03:53:27.604Z,21.39
2022-10-01T03:55:53.962Z,21.35
2022-10-01T03:58:20.330Z,21.37
2022-10-01T04:00:46.697Z,21.36
2022-10-01T04:03:13.125Z,21.32
2022-10-01T04:05:39.570Z,21.34
2022-10-01T04:08:06.893Z,21.32
2022-10-01T04:10:33.250Z,21.31
2022-10-01T04:12:59.628Z,21.28
2022-10-01T04:15:25.984Z,21.26
2022-10-01T04:17:52.358Z,21.25
2022-10-01T04:20:18.734Z,21.23
2022-10-01T04:22:45.106Z,21.24
2022-10-01T04:25:11.478Z,21.23
2022-10-01T04:27:37.858Z,21.24
2022-10-01T04:30:04.212Z,21.24
2022-10-01T04:32:30.595Z,21.22
2022-10-01T04:34:56.957Z,21.23
2022-10-01T04:37:23.317Z,21.23
2022-10-01T04:39:49.683Z,21.23
2022-10-01T04:42:16.052Z,21.23
2022-10-01T04:44:42.420Z,21.25
2022-10-01T04:47:08.867Z,21.24
2022-10-01T04:49:35.291Z,21.24
2022-10-01T04:52:01.659Z,21.21
2022-10-01T04:54:28.016Z,21.23
2022-10-01T04:56:54.399Z,21.20
2022-10-01T04:59:20.785Z,21.21
2022-10-01T05:01:47.347Z,21.20
2022-10-01T05:04:13.811Z,21.22
2022-10-01T05:06:40.180Z,21.21
2022-10-01T05:09:06.544Z,21.20
2022-10-01T05:11:33.104Z,21.18
2022-10-01T05:13:59.701Z,21.16
2022-10-01T05:16:26.107Z,21.17
2022-10-01T05:18:52.494Z,21.15
2022-10-01T05:21:18.852Z,21.18
2022-10-01T05:23:45.222Z,21.14
2022-10-01T05:26:11.598Z,21.18
2022-10-01T05:28:38.030Z,21.17
2022-10-01T05:31:04.489Z,21.20
2022-10-01T05:33:30.917Z,21.17
2022-10-01T05:35:57.276Z,21.14
2022-10-01T05:38:23.632Z,21.16
2022-10-01T05:40:49.992Z,21.15
2022-10-01T05:43:16.367Z,21.12
2022-10-01T05:45:42.789Z,21.16
2022-10-01T05:48:09.191Z,21.13
2022-10-01T05:50:35.555Z,21.14
2022-10-01T05:53:01.916Z,21.13
2022-10-01T05:55:28.287Z,21.13
2022-10-01T05:57:54.662Z,21.17
2022-10-01T06:00:21.027Z,21.09
2022-10-01T06:02:47.515Z,21.17
2022-10-01T06:05:13.984Z,21.31
2022-10-01T06:07:40.353Z,20.99
2022-10-01T06:10:06.721Z,21.01
2022-10-01T06:12:33.084Z,21.08
2022-10-01T06:14:59.445Z,21.10
2022-10-01T06:17:25.815Z,21.10
2022-10-01T06:19:52.173Z,21.08
2022-10-01T06:22:18.551Z,21.08
2022-10-01T06:24:44.917Z,21.11
2022-10-01T06:27:11.272Z,21.11
2022-10-01T06:29:37.650Z,21.10
2022-10-01T06:32:04.050Z,21.09
2022-10-01T06:34:30.438Z,21.09
2022-10-01T06:36:56.816Z,21.12
2022-10-01T06:39:23.167Z,21.10
2022-10-01T06:41:49.551Z,21.07
2022-10-01T06:44:15.916Z,21.08
2022-10-01T06:46:42.283Z,21.10
2022-10-01T06:49:08.657Z,21.09
2022-10-01T06:51:35.175Z,21.09
2022-10-01T06:54:04.619Z,21.04
2022-10-01T06:56:30.973Z,21.07
2022-10-01T06:58:57.349Z,21.10
2022-10-01T07:01:23.752Z,21.07
2022-10-01T07:03:50.189Z,21.07
2022-10-01T07:06:16.552Z,21.12
2022-10-01T07:08:42.907Z,21.07
2022-10-01T07:11:09.273Z,21.06
2022-10-01T07:13:35.636Z,21.06
2022-10-01T07:16:02.060Z,21.12
2022-10-01T07:18:28.488Z,21.07
2022-10-01T07:20:54.844Z,21.08
2022-10-01T07:23:21.195Z,21.07
2022-10-01T07:25:47.579Z,21.05
2022-10-01T07:28:14.095Z,21.10
2022-10-01T07:30:40.590Z,21.10
2022-10-01T07:33:06.951Z,21.11
2022-10-01T07:35:33.320Z,21.05
2022-10-01T07:37:59.673Z,21.04
2022-10-01T07:40:26.039Z,21.04
2022-10-01T07:42:52.395Z,21.11
2022-10-01T07:45:18.774Z,21.10
2022-10-01T07:47:45.142Z,21.10
2022-10-01T07:50:11.522Z,21.11
2022-10-01T07:52:37.912Z,21.09
2022-10-01T07:55:04.298Z,21.10
2022-10-01T07:57:30.755Z,21.11
2022-10-01T07:59:57.141Z,21.14
2022-10-01T08:02:23.618Z,21.10
2022-10-01T08:04:50.073Z,21.09
2022-10-01T08:07:16.440Z,21.14
2022-10-01T08:09:42.822Z,21.11
2022-10-01T08:12:09.196Z,21.10
2022-10-01T08:14:35.563Z,21.09
2022-10-01T08:17:01.994Z,21.10
2022-10-01T08:19:28.420Z,21.10
2022-10-01T08:21:54.784Z,21.15
2022-10-01T08:24:21.170Z,21.13
2022-10-01T08:26:47.546Z,21.14
2022-10-01T08:29:17.049Z,21.11
2022-10-01T08:31:43.651Z,21.13
2022-10-01T08:34:10.043Z,21.12
2022-10-01T08:36:36.503Z,21.11
2022-10-01T08:39:02.879Z,21.14
2022-10-01T08:41:29.255Z,21.10
2022-10-01T08:43:55.625Z,21.13
2022-10-01T08:46:22.007Z,21.11
2022-10-01T08:48:48.378Z,21.14
2022-10-01T08:51:14.759Z,21.12
2022-10-01T08:53:41.126Z,21.09
2022-10-01T08:56:07.499Z,21.10
2022-10-01T08:58:33.868Z,21.08
2022-10-01T09:01:00.282Z,21.09
2022-10-01T09:03:26.689Z,21.09
2022-10-01T09:05:53.057Z,21.10
2022-10-01T09:08:19.446Z,21.10
2022-10-01T09:10:45.826Z,21.12
2022-10-01T09:13:12.200Z,21.11
2022-10-01T09:15:38.583Z,21.11
2022-10-01T09:18:04.966Z,21.10
2022-10-01T09:20:31.338Z,21.11
2022-10-01T09:22:57.709Z,21.09
2022-10-01T09:25:24.076Z,21.11
2022-10-01T09:27:50.483Z,21.12
2022-10-01T09:30:16.925Z,21.10
2022-10-01T09:32:43.322Z,21.15
2022-10-01T09:35:09.715Z,21.16
2022-10-01T09:37:36.097Z,21.21
2022-10-01T09:40:02.474Z,21.17
2022-10-01T09:42:28.862Z,21.12
2022-10-01T09:44:55.224Z,21.22
2022-10-01T09:47:21.607Z,21.27
2022-10-01T09:49:47.993Z,21.32
2022-10-01T09:52:14.359Z,21.33
2022-10-01T09:54:40.720Z,21.35
2022-10-01T09:57:07.093Z,21.34
2022-10-01T09:59:33.484Z,21.35
2022-10-01T10:01:59.977Z,21.40
2022-10-01T10:04:26.498Z,21.35
2022-10-01T10:06:52.867Z,21.31
2022-10-01T10:09:19.253Z,21.32
2022-10-01T10:11:45.612Z,21.36
2022-10-01T10:14:11.994Z,21.36
2022-10-01T10:16:38.801Z,21.36
2022-10-01T10:19:05.347Z,21.36
2022-10-01T10:21:31.743Z,21.37
2022-10-01T10:23:58.130Z,21.35
2022-10-01T10:26:24.564Z,21.37
2022-10-01T10:28:50.960Z,21.33
2022-10-01T10:31:17.390Z,21.29
2022-10-01T10:33:43.917Z,21.31
2022-10-01T10:36:10.293Z,21.23
2022-10-01T10:38:36.679Z,21.29
2022-10-01T10:41:03.060Z,21.27
2022-10-01T10:43:29.442Z,21.25
2022-10-01T10:45:55.840Z,21.26
2022-10-01T10:48:22.280Z,21.29
2022-10-01T10:50:48.648Z,21.29
2022-10-01T10:53:15.046Z,21.29
2022-10-01T10:55:41.430Z,21.32
2022-10-01T10:58:07.824Z,21.33
2022-10-01T11:00:34.207Z,21.37
2022-10-01T11:03:00.593Z,21.38
2022-10-01T11:05:26.991Z,21.37
2022-10-01T11:07:53.375Z,21.41
2022-10-01T11:10:19.743Z,21.41
2022-10-01T11:12:46.134Z,21.40
2022-10-01T11:15:12.511Z,21.36
2022-10-01T11:17:38.885Z,21.43
2022-10-01T11:20:05.264Z,21.40
2022-10-01T11:22:31.634Z,21.40
2022-10-01T11:24:58.023Z,21.40
2022-10-01T11:27:24.408Z,21.42
2022-10-01T11:29:50.786Z,21.41
2022-10-01T11:32:17.177Z,21.46
2022-10-01T11:34:43.560Z,21.44
2022-10-01T11:37:09.933Z,21.45
2022-10-01T11:39:36.333Z,21.48
2022-10-01T11:42:02.720Z,21.42
2022-10-01T11:44:29.109Z,21.43
2022-10-01T11:46:55.548Z,21.41
2022-10-01T11:49:21.972Z,21.40
2022-10-01T11:51:48.345Z,21.39
2022-10-01T11:54:14.731Z,21.42
2022-10-01T11:56:41.109Z,21.45
2022-10-01T11:59:07.493Z,21.44
2022-10-01T12:01:33.873Z,21.45
2022-10-01T12:04:00.294Z,21.46
2022-10-01T12:06:30.491Z,21.47
2022-10-01T12:08:59.463Z,21.42
2022-10-01T12:11:25.839Z,21.47
2022-10-01T12:13:52.230Z,21.38
2022-10-01T12:16:18.662Z,21.36
2022-10-01T12:18:45.068Z,21.37
2022-10-01T12:21:11.461Z,21.37
2022-10-01T12:23:37.843Z,21.38
2022-10-01T12:26:04.233Z,21.36
2022-10-01T12:28:30.632Z,21.37
2022-10-01T12:30:57.078Z,21.38
2022-10-01T12:33:23.528Z,21.37
2022-10-01T12:35:49.909Z,21.37
2022-10-01T12:38:16.272Z,21.38
2022-10-01T12:40:42.663Z,21.38
2022-10-01T12:43:09.128Z,21.37
2022-10-01T12:45:35.509Z,21.40
2022-10-01T12:48:01.882Z,21.41
2022-10-01T12:50:28.275Z,21.39
2022-10-01T12:52:54.653Z,21.38
2022-10-01T12:55:21.033Z,21.36
2022-10-01T12:57:47.417Z,21.37
2022-10-01T13:00:13.785Z,21.37
2022-10-01T13:02:40.153Z,21.37
2022-10-01T13:05:06.532Z,21.39
2022-10-01T13:07:32.926Z,21.37
2022-10-01T13:09:59.296Z,21.37
2022-10-01T13:12:25.669Z,21.40
2022-10-01T13:14:52.054Z,21.37
2022-10-01T13:17:18.420Z,21.38
2022-10-01T13:19:44.803Z,21.40
2022-10-01T13:22:11.167Z,21.41
2022-10-01T13:24:37.534Z,21.41
2022-10-01T13:27:03.914Z,21.38
2022-10-01T13:29:30.294Z,21.36
2022-10-01T13:31:56.699Z,21.35
2022-10-01T13:34:23.080Z,21.37
2022-10-01T13:36:49.469Z,21.34
2022-10-01T13:39:15.839Z,21.35
2022-10-01T13:43:35.654Z,21.39
2022-10-01T13:46:02.066Z,21.36
2022-10-01T13:48:28.493Z,21.36
2022-10-01T13:50:54.869Z,21.37
2022-10-01T13:53:21.249Z,21.36
2022-10-01T13:55:47.638Z,21.32
2022-10-01T13:58:14.011Z,21.35
2022-10-01T14:00:40.381Z,21.44
2022-10-01T14:03:06.798Z,21.63
2022-10-01T14:05:33.259Z,21.70
2022-10-01T14:07:59.639Z,21.25
2022-10-01T14:10:26.014Z,21.30
2022-10-01T14:12:52.389Z,21.33
2022-10-01T14:15:18.776Z,21.32
2022-10-01T14:17:45.165Z,21.33
2022-10-01T14:20:11.532Z,21.32
2022-10-01T14:22:37.895Z,21.31
2022-10-01T14:25:04.264Z,21.32
2022-10-01T14:27:30.675Z,21.29
2022-10-01T14:29:57.045Z,21.31
2022-10-01T14:32:23.428Z,21.29
2022-10-01T14:34:49.830Z,21.34
2022-10-01T14:37:17.268Z,21.33
2022-10-01T14:39:43.863Z,21.35
2022-10-01T14:42:16.481Z,21.32
2022-10-01T14:44:43.544Z,21.31
2022-10-01T14:47:09.912Z,21.34
2022-10-01T14:49:36.290Z,21.33
2022-10-01T14:52:02.677Z,21.30
2022-10-01T14:54:29.076Z,21.30
2022-10-01T14:56:55.453Z,21.37
2022-10-01T14:59:21.825Z,21.35
2022-10-01T15:01:48.191Z,21.32
2022-10-01T15:04:14.665Z,21.31
2022-10-01T15:06:41.091Z,21.32
2022-10-01T15:09:07.481Z,21.31
2022-10-01T15:11:33.845Z,21.32
2022-10-01T15:14:00.221Z,21.30
2022-10-01T15:16:26.666Z,21.30
2022-10-01T15:18:53.084Z,21.30
2022-10-01T15:21:19.451Z,21.31
2022-10-01T15:23:45.827Z,21.31
2022-10-01T15:26:12.223Z,21.32
2022-10-01T15:28:38.594Z,21.34
2022-10-01T15:31:05.039Z,21.33
2022-10-01T15:33:31.581Z,21.33
2022-10-01T15:35:57.962Z,21.32
2022-10-01T15:38:24.341Z,21.34
2022-10-01T15:40:50.703Z,21.32
2022-10-01T15:43:17.169Z,21.35
2022-10-01T15:45:43.550Z,21.32
2022-10-01T15:48:09.922Z,21.30
2022-10-01T15:50:36.300Z,21.31
2022-10-01T15:53:02.676Z,21.33
2022-10-01T15:55:29.044Z,21.32
2022-10-01T15:57:55.435Z,21.32
2022-10-01T16:00:21.801Z,21.33
2022-10-01T16:02:48.169Z,21.32
2022-10-01T16:05:14.546Z,21.32
2022-10-01T16:07:40.936Z,21.33
2022-10-01T16:10:07.309Z,21.35
2022-10-01T16:12:33.672Z,21.35
2022-10-01T16:15:00.050Z,21.34
2022-10-01T16:17:26.424Z,21.33
2022-10-01T16:19:52.788Z,21.33
2022-10-01T16:22:19.152Z,21.32
2022-10-01T16:24:45.521Z,21.32
2022-10-01T16:27:11.885Z,21.36
2022-10-01T16:29:38.266Z,21.37
2022-10-01T16:32:04.641Z,21.34
2022-10-01T16:34:31.020Z,21.32
2022-10-01T16:36:57.407Z,21.32
2022-10-01T16:39:23.794Z,21.34
2022-10-01T16:42:06.171Z,21.30
2022-10-01T16:44:36.525Z,21.33
2022-10-01T16:47:02.894Z,21.33
2022-10-01T16:49:29.280Z,21.31
2022-10-01T16:51:55.654Z,21.33
2022-10-01T16:54:22.020Z,21.35
2022-10-01T16:56:48.395Z,21.34
2022-10-01T16:59:14.760Z,21.34
2022-10-01T17:01:41.168Z,21.36
2022-10-01T17:04:07.539Z,21.34
2022-10-01T17:06:34.051Z,21.36
2022-10-01T17:09:00.554Z,21.33
2022-10-01T17:11:26.941Z,21.33
2022-10-01T17:13:53.313Z,21.32
2022-10-01T17:16:23.945Z,21.33
2022-10-01T17:18:51.064Z,21.32
2022-10-01T17:21:17.444Z,21.34
2022-10-01T17:23:43.820Z,21.35
2022-10-01T17:26:10.210Z,21.31
2022-10-01T17:28:36.599Z,21.31
2022-10-01T17:31:02.965Z,21.33
2022-10-01T17:33:29.346Z,21.32
2022-10-01T17:35:55.720Z,21.30
2022-10-01T17:38:22.089Z,21.31
2022-10-01T17:40:50.846Z,21.29
2022-10-01T17:43:19.352Z,21.32
2022-10-01T17:45:45.788Z,21.33
2022-10-01T17:48:12.182Z,21.32
2022-10-01T17:50:38.556Z,21.30
2022-10-01T17:53:04.932Z,21.31
2022-10-01T17:55:31.303Z,21.31
2022-10-01T17:57:57.665Z,21.32
2022-10-01T18:00:24.053Z,21.35
2022-10-01T18:02:50.470Z,21.33
2022-10-01T18:05:16.916Z,21.32
2022-10-01T18:07:43.282Z,21.33
2022-10-01T18:10:09.656Z,21.32
2022-10-01T18:12:36.029Z,21.33
2022-10-01T18:15:02.413Z,21.31
2022-10-01T18:17:29.221Z,21.31
2022-10-01T18:19:55.685Z,21.28
2022-10-01T18:22:22.077Z,21.28
2022-10-01T18:24:48.650Z,21.30
2022-10-01T18:27:15.033Z,21.32
2022-10-01T18:29:41.423Z,21.31
2022-10-01T18:32:07.788Z,21.32
2022-10-01T18:34:34.171Z,21.35
2022-10-01T18:37:00.570Z,21.35
2022-10-01T18:39:26.940Z,21.33
2022-10-01T18:41:53.336Z,21.30
2022-10-01T18:44:20.568Z,21.33
2022-10-01T18:46:47.067Z,21.31
2022-10-01T18:49:13.432Z,21.33
2022-10-01T18:51:39.807Z,21.33
2022-10-01T18:54:06.202Z,21.31
2022-10-01T18:56:33.075Z,21.30
2022-10-01T18:58:59.694Z,21.30
2022-10-01T19:01:26.182Z,21.30
2022-10-01T19:03:52.609Z,21.29
2022-10-01T19:06:18.989Z,21.30
2022-10-01T19:08:45.377Z,21.29
2022-10-01T19:11:17.047Z,21.17
2022-10-01T19:13:44.278Z,21.10
2022-10-01T19:16:10.871Z,21.16
2022-10-01T19:18:37.270Z,20.99
2022-10-01T19:21:03.631Z,20.99
2022-10-01T19:23:30.019Z,21.11
2022-10-01T19:25:56.377Z,21.04
2022-10-01T19:28:22.833Z,21.11
2022-10-01T19:30:49.225Z,21.08
2022-10-01T19:33:15.600Z,21.10
2022-10-01T19:35:41.965Z,21.03
2022-10-01T19:38:08.350Z,21.00
2022-10-01T19:40:34.731Z,21.07
2022-10-01T19:43:01.084Z,21.05
2022-10-01T19:45:27.451Z,21.09
2022-10-01T19:47:53.835Z,21.07
2022-10-01T19:50:20.189Z,21.07
2022-10-01T19:52:46.555Z,21.06
2022-10-01T19:55:12.915Z,21.02
2022-10-01T19:57:39.280Z,21.05
2022-10-01T20:00:05.670Z,21.08
2022-10-01T20:02:32.038Z,21.03
2022-10-01T20:04:58.405Z,21.04
2022-10-01T20:07:24.774Z,21.08
2022-10-01T20:09:51.151Z,21.11
2022-10-01T20:12:17.527Z,21.11
2022-10-01T20:14:43.977Z,21.12
2022-10-01T20:17:10.432Z,21.12
2022-10-01T20:19:36.802Z,21.12
2022-10-01T20:22:03.169Z,21.11
2022-10-01T20:24:29.545Z,21.12
2022-10-01T20:26:55.903Z,21.12
2022-10-01T20:29:22.274Z,21.11
2022-10-01T20:31:48.665Z,21.10
2022-10-01T20:34:15.065Z,21.11
2022-10-01T20:36:41.739Z,21.11
2022-10-01T20:39:08.402Z,21.14
2022-10-01T20:41:34.773Z,21.13
2022-10-01T20:44:01.151Z,21.13
2022-10-01T20:46:27.529Z,21.11
2022-10-01T20:48:53.897Z,21.11
2022-10-01T20:51:20.258Z,21.11
2022-10-01T20:53:46.624Z,21.11
2022-10-01T20:56:13.014Z,21.12
2022-10-01T20:58:39.398Z,21.11
2022-10-01T21:01:05.768Z,21.12
2022-10-01T21:03:32.155Z,21.13
2022-10-01T21:05:58.527Z,21.11
2022-10-01T21:08:24.895Z,21.12
2022-10-01T21:10:51.247Z,21.15
2022-10-01T21:13:17.621Z,21.14
2022-10-01T21:15:43.977Z,21.14
2022-10-01T21:18:10.357Z,21.14
2022-10-01T21:20:36.716Z,21.14
2022-10-01T21:23:03.073Z,21.12
2022-10-01T21:25:29.441Z,21.13
2022-10-01T21:27:55.850Z,21.13
2022-10-01T21:30:22.227Z,21.13
2022-10-01T21:32:48.588Z,21.12
2022-10-01T21:35:14.951Z,21.12
2022-10-01T21:37:41.322Z,21.12
2022-10-01T21:40:07.685Z,21.22
2022-10-01T21:42:34.060Z,21.10
2022-10-01T21:45:00.427Z,21.19
2022-10-01T21:47:26.798Z,21.20
2022-10-01T21:49:53.165Z,20.95
2022-10-01T21:52:19.544Z,21.34
2022-10-01T21:54:45.914Z,21.35
2022-10-01T21:57:12.269Z,21.36
2022-10-01T21:59:38.642Z,20.93
2022-10-01T22:02:05.072Z,20.68
2022-10-01T22:04:31.501Z,20.22
2022-10-01T22:06:57.862Z,20.11
2022-10-01T22:09:24.234Z,19.74
2022-10-01T22:11:50.606Z,19.75
2022-10-01T22:14:16.965Z,19.75
2022-10-01T22:16:43.364Z,19.66
2022-10-01T22:19:09.770Z,19.60
2022-10-01T22:21:36.121Z,19.32
2022-10-01T22:24:02.486Z,19.42
2022-10-01T22:26:28.852Z,19.40
2022-10-01T22:28:55.210Z,19.26
2022-10-01T22:31:21.652Z,19.23
2022-10-01T22:33:48.045Z,19.34
2022-10-01T22:36:14.409Z,19.22
2022-10-01T22:38:40.772Z,19.11
2022-10-01T22:41:07.120Z,19.13
2022-10-01T22:43:33.469Z,18.90
2022-10-01T22:45:59.898Z,18.96
2022-10-01T22:48:26.299Z,18.93
2022-10-01T22:50:52.679Z,19.12
2022-10-01T22:53:19.042Z,19.07
2022-10-01T22:55:45.400Z,19.21
2022-10-01T22:58:11.747Z,19.19
2022-10-01T23:00:38.183Z,19.64
2022-10-01T23:03:04.589Z,19.91
2022-10-01T23:05:31.010Z,20.06
2022-10-01T23:07:57.384Z,20.19
2022-10-01T23:10:23.752Z,20.36
2022-10-01T23:12:50.109Z,20.48
2022-10-01T23:15:16.463Z,20.45
2022-10-01T23:17:42.840Z,20.50
2022-10-01T23:20:09.207Z,20.60
2022-10-01T23:22:35.599Z,20.59
2022-10-01T23:25:01.950Z,20.65
2022-10-01T23:27:28.320Z,20.61
2022-10-01T23:29:54.695Z,20.59
2022-10-01T23:32:21.049Z,20.62
2022-10-01T23:34:47.425Z,20.64
2022-10-01T23:37:13.779Z,20.64
2022-10-01T23:39:40.135Z,20.71
2022-10-01T23:42:06.526Z,20.73
2022-10-01T23:44:32.929Z,20.77
2022-10-01T23:46:59.311Z,20.74
2022-10-01T23:49:25.682Z,20.64
2022-10-01T23:51:52.040Z,20.58
2022-10-01T23:54:18.406Z,20.55
2022-10-01T23:56:44.769Z,20.47
2022-10-01T23:59:11.131Z,20.45
